Time;durP1;ratioP1;P1;durP2;ratioP2;P2;SDS_P1;SDS_P2;PMS_P1;PMS_P2;Temp;Humidity;BMP_temperature;BMP_pressure;BME280_temperature;BME280_humidity;BME280_pressure;Samples;Min_cycle;Max_cycle;Signal;HPM_P1;HPM_P2
2023/06/24 00:00:57;;;;;;;;;;;17.30;99.90;;;;;;5079571;28;19999;-76
2023/06/24 00:03:23;;;;;;;;;;;17.30;99.90;;;;;;5101759;28;19919;-76
2023/06/24 00:05:49;;;;;;;;;;;17.20;99.90;;;;;;5064233;28;19923;-74
2023/06/24 00:08:21;;;;;;;;;;;17.20;99.90;;;;;;5079683;28;20002;-75
2023/06/24 00:10:47;;;;;;;;;;;17.20;99.90;;;;;;5083749;28;19965;-74
2023/06/24 00:13:14;;;;;;;;;;;17.20;99.90;;;;;;5083571;28;20319;-75
2023/06/24 00:15:42;;;;;;;;;;;17.40;99.90;;;;;;5093738;28;20062;-75
2023/06/24 00:18:11;;;;;;;;;;;17.20;99.90;;;;;;5101611;28;19920;-74
2023/06/24 00:20:37;;;;;;;;;;;17.10;99.90;;;;;;5094531;28;19930;-74
2023/06/24 00:23:03;;;;;;;;;;;17.10;99.90;;;;;;5092068;28;19920;-76
2023/06/24 00:25:29;;;;;;;;;;;17.10;99.90;;;;;;5121008;28;20400;-76
2023/06/24 00:27:54;;;;;;;;;;;17.10;99.90;;;;;;5113357;28;20280;-74
2023/06/24 00:30:23;;;;;;;;;;;17.00;99.90;;;;;;5103189;28;20019;-76
2023/06/24 00:32:49;;;;;;;;;;;17.00;99.90;;;;;;5106070;28;19926;-76
2023/06/24 00:35:15;;;;;;;;;;;17.10;99.90;;;;;;5096059;28;19923;-75
2023/06/24 00:37:45;;;;;;;;;;;17.00;99.90;;;;;;5094530;28;20454;-74
2023/06/24 00:40:11;;;;;;;;;;;17.00;99.90;;;;;;5109998;28;19924;-75
2023/06/24 00:42:37;;;;;;;;;;;17.00;99.90;;;;;;5093623;28;19919;-74
2023/06/24 00:45:04;;;;;;;;;;;17.00;99.90;;;;;;5110799;28;19965;-75
2023/06/24 00:47:31;;;;;;;;;;;17.00;99.90;;;;;;5106307;28;19959;-75
2023/06/24 00:49:57;;;;;;;;;;;16.90;99.90;;;;;;5096251;28;19920;-74
2023/06/24 00:52:23;;;;;;;;;;;17.00;99.90;;;;;;5079620;28;19959;-76
2023/06/24 00:54:49;;;;;;;;;;;17.00;99.90;;;;;;5079951;28;19924;-76
2023/06/24 00:57:17;;;;;;;;;;;16.90;99.90;;;;;;5071876;28;19920;-76
2023/06/24 00:59:43;;;;;;;;;;;16.90;99.90;;;;;;5102265;28;19920;-74
2023/06/24 01:02:10;;;;;;;;;;;16.90;99.90;;;;;;5123612;27;19920;-75
2023/06/24 01:04:36;;;;;;;;;;;16.80;99.90;;;;;;5108533;28;19924;-75
2023/06/24 01:07:03;;;;;;;;;;;16.80;99.90;;;;;;5117195;28;19919;-76
2023/06/24 01:09:29;;;;;;;;;;;16.80;99.90;;;;;;5123110;27;19920;-75
2023/06/24 01:11:55;;;;;;;;;;;16.80;99.90;;;;;;5092543;28;19996;-76
2023/06/24 01:14:23;;;;;;;;;;;16.80;99.90;;;;;;5123378;27;19926;-76
2023/06/24 01:16:55;;;;;;;;;;;16.80;99.90;;;;;;5111312;28;20148;-76
2023/06/24 01:19:24;;;;;;;;;;;16.80;99.90;;;;;;5110071;27;20002;-75
2023/06/24 01:22:11;;;;;;;;;;;16.80;99.90;;;;;;5101106;28;19994;-77
2023/06/24 01:24:44;;;;;;;;;;;16.80;99.90;;;;;;5101495;28;19989;-76
2023/06/24 01:27:28;;;;;;;;;;;16.70;99.90;;;;;;5118025;27;19927;-76
2023/06/24 01:30:02;;;;;;;;;;;16.70;99.90;;;;;;5062962;28;19928;-76
2023/06/24 01:32:44;;;;;;;;;;;16.70;99.90;;;;;;5088202;28;19955;-76
2023/06/24 01:35:21;;;;;;;;;;;16.70;99.90;;;;;;5091394;28;19920;-75
2023/06/24 01:37:48;;;;;;;;;;;16.70;99.90;;;;;;5114324;27;20304;-76
2023/06/24 01:40:27;;;;;;;;;;;16.80;99.90;;;;;;5095252;28;19969;-76
2023/06/24 01:42:54;;;;;;;;;;;16.60;99.90;;;;;;5119808;27;19927;-76
2023/06/24 01:45:23;;;;;;;;;;;16.60;99.90;;;;;;5115972;28;20478;-74
2023/06/24 01:47:48;;;;;;;;;;;16.60;99.90;;;;;;5088193;28;19978;-75
2023/06/24 01:50:16;;;;;;;;;;;16.60;99.90;;;;;;5084542;28;19920;-76
2023/06/24 01:52:43;;;;;;;;;;;16.60;99.90;;;;;;5093778;28;19920;-76
2023/06/24 01:55:10;;;;;;;;;;;16.60;99.90;;;;;;5086793;28;19926;-75
2023/06/24 01:57:37;;;;;;;;;;;16.50;99.90;;;;;;5086348;28;19954;-76
2023/06/24 02:00:06;;;;;;;;;;;16.50;99.90;;;;;;5076505;28;20015;-75
2023/06/24 02:02:32;;;;;;;;;;;16.50;99.90;;;;;;5086845;28;20616;-75
2023/06/24 02:04:58;;;;;;;;;;;16.50;99.90;;;;;;5114601;27;19919;-75
2023/06/24 02:07:24;;;;;;;;;;;16.50;99.90;;;;;;5101545;28;19926;-75
2023/06/24 02:09:51;;;;;;;;;;;16.50;99.90;;;;;;5099036;28;19924;-75
2023/06/24 02:12:17;;;;;;;;;;;16.50;99.90;;;;;;5110201;27;19983;-77
2023/06/24 02:14:43;;;;;;;;;;;16.50;99.90;;;;;;5104992;28;19920;-75
2023/06/24 02:17:12;;;;;;;;;;;16.50;99.90;;;;;;5100368;27;19965;-75
2023/06/24 02:19:38;;;;;;;;;;;16.50;99.90;;;;;;5093298;28;19920;-75
2023/06/24 02:22:09;;;;;;;;;;;16.50;99.90;;;;;;5105256;28;19919;-75
2023/06/24 02:24:36;;;;;;;;;;;16.50;99.90;;;;;;5090277;28;20428;-75
2023/06/24 02:27:02;;;;;;;;;;;16.50;99.90;;;;;;5104220;28;20007;-75
2023/06/24 02:29:29;;;;;;;;;;;16.50;99.90;;;;;;5098597;27;19927;-75
2023/06/24 02:31:54;;;;;;;;;;;16.50;99.90;;;;;;5100053;28;20342;-75
2023/06/24 02:34:20;;;;;;;;;;;16.40;99.90;;;;;;5101133;28;20016;-76
2023/06/24 02:36:45;;;;;;;;;;;16.50;99.90;;;;;;5100275;28;19924;-76
2023/06/24 02:39:11;;;;;;;;;;;16.40;99.90;;;;;;5085713;28;19919;-75
2023/06/24 02:41:37;;;;;;;;;;;16.40;99.90;;;;;;5084243;28;19924;-75
2023/06/24 02:44:02;;;;;;;;;;;16.40;99.90;;;;;;5079981;28;20393;-75
2023/06/24 02:46:31;;;;;;;;;;;16.40;99.90;;;;;;5104767;27;20259;-76
2023/06/24 02:48:57;;;;;;;;;;;16.40;99.90;;;;;;5071875;28;19927;-75
2023/06/24 02:51:24;;;;;;;;;;;16.40;99.90;;;;;;5074709;28;19920;-75
2023/06/24 02:53:49;;;;;;;;;;;16.30;99.90;;;;;;5065207;28;20380;-76
2023/06/24 02:56:20;;;;;;;;;;;16.40;99.90;;;;;;5099621;28;20006;-75
2023/06/24 02:58:46;;;;;;;;;;;16.30;99.90;;;;;;5095541;28;19927;-75
2023/06/24 03:01:12;;;;;;;;;;;16.30;99.90;;;;;;5100887;27;19919;-76
2023/06/24 03:03:39;;;;;;;;;;;16.30;99.90;;;;;;5113103;28;20293;-76
2023/06/24 03:06:05;;;;;;;;;;;16.30;99.90;;;;;;5106820;28;20060;-75
2023/06/24 03:08:30;;;;;;;;;;;16.30;99.90;;;;;;5111073;28;20394;-76
2023/06/24 03:10:57;;;;;;;;;;;16.30;99.90;;;;;;5091885;28;19924;-76
2023/06/24 03:13:23;;;;;;;;;;;16.30;99.90;;;;;;5096585;28;19923;-75
2023/06/24 03:15:48;;;;;;;;;;;16.30;99.90;;;;;;5110105;28;20304;-76
2023/06/24 03:18:15;;;;;;;;;;;16.30;99.90;;;;;;5079739;27;20413;-75
2023/06/24 03:20:40;;;;;;;;;;;16.30;99.90;;;;;;5109779;28;19919;-75
2023/06/24 03:23:09;;;;;;;;;;;16.20;99.90;;;;;;5104248;28;20438;-76
2023/06/24 03:25:35;;;;;;;;;;;16.20;99.90;;;;;;5119173;27;19945;-75
2023/06/24 03:28:01;;;;;;;;;;;16.20;99.90;;;;;;5105508;27;19963;-75
2023/06/24 03:30:27;;;;;;;;;;;16.20;99.90;;;;;;5104027;28;20215;-75
2023/06/24 03:32:52;;;;;;;;;;;16.20;99.90;;;;;;5091323;27;20022;-75
2023/06/24 03:35:18;;;;;;;;;;;16.20;99.90;;;;;;5086143;28;20007;-75
2023/06/24 03:37:43;;;;;;;;;;;16.20;99.90;;;;;;5088921;28;19919;-75
2023/06/24 03:40:09;;;;;;;;;;;16.20;99.90;;;;;;5091281;28;19945;-76
2023/06/24 03:42:35;;;;;;;;;;;16.20;99.90;;;;;;5082097;28;20369;-75
2023/06/24 03:45:02;;;;;;;;;;;16.20;99.90;;;;;;5098146;28;21582;-75
2023/06/24 03:47:28;;;;;;;;;;;16.20;99.90;;;;;;5068544;28;19920;-76
2023/06/24 03:49:53;;;;;;;;;;;16.20;99.90;;;;;;5072464;28;20009;-76
2023/06/24 03:52:19;;;;;;;;;;;16.30;99.90;;;;;;5103498;27;19919;-75
2023/06/24 03:54:44;;;;;;;;;;;16.20;99.90;;;;;;5083393;28;19925;-75
2023/06/24 03:57:10;;;;;;;;;;;16.20;99.90;;;;;;5070203;28;19935;-76
2023/06/24 03:59:36;;;;;;;;;;;16.30;99.90;;;;;;5062925;28;19943;-75
2023/06/24 04:02:01;;;;;;;;;;;16.20;99.90;;;;;;5066858;28;19921;-75
2023/06/24 04:04:27;;;;;;;;;;;16.20;99.90;;;;;;5061608;28;19928;-75
2023/06/24 04:06:52;;;;;;;;;;;16.20;99.90;;;;;;5062635;28;19920;-75
2023/06/24 04:09:18;;;;;;;;;;;16.20;99.90;;;;;;5069532;28;19920;-74
2023/06/24 04:11:43;;;;;;;;;;;16.20;99.90;;;;;;5067274;28;20010;-76
2023/06/24 04:14:09;;;;;;;;;;;16.20;99.90;;;;;;5064513;28;19924;-75
2023/06/24 04:16:35;;;;;;;;;;;16.30;99.90;;;;;;5067174;28;19928;-75
2023/06/24 04:19:01;;;;;;;;;;;16.30;99.90;;;;;;5058804;28;19978;-75
2023/06/24 04:21:27;;;;;;;;;;;16.30;99.90;;;;;;5075102;28;19928;-74
2023/06/24 04:23:52;;;;;;;;;;;16.80;99.90;;;;;;5055546;28;19921;-76
2023/06/24 04:26:18;;;;;;;;;;;16.40;99.90;;;;;;5064323;28;19924;-76
2023/06/24 04:28:44;;;;;;;;;;;16.40;99.90;;;;;;5065131;28;19920;-75
2023/06/24 04:31:09;;;;;;;;;;;16.40;99.90;;;;;;5072817;28;20011;-75
2023/06/24 04:33:35;;;;;;;;;;;16.40;99.90;;;;;;5066309;28;19925;-74
2023/06/24 04:36:01;;;;;;;;;;;16.50;99.90;;;;;;5068514;28;20427;-74
2023/06/24 04:38:27;;;;;;;;;;;16.50;99.90;;;;;;5058963;28;20334;-75
2023/06/24 04:40:52;;;;;;;;;;;16.60;99.90;;;;;;5084022;28;19920;-77
2023/06/24 04:43:18;;;;;;;;;;;16.70;99.90;;;;;;5061348;28;20247;-76
2023/06/24 04:45:44;;;;;;;;;;;16.70;99.90;;;;;;5067286;28;19928;-75
2023/06/24 04:48:09;;;;;;;;;;;16.80;99.90;;;;;;5066459;28;19920;-75
2023/06/24 04:50:35;;;;;;;;;;;16.90;99.90;;;;;;5088933;28;19921;-76
2023/06/24 04:53:01;;;;;;;;;;;16.90;99.90;;;;;;5065658;28;19920;-75
2023/06/24 04:55:29;;;;;;;;;;;17.00;99.90;;;;;;5071132;28;19920;-75
2023/06/24 04:57:55;;;;;;;;;;;17.00;99.90;;;;;;5073292;28;20412;-75
2023/06/24 05:00:23;;;;;;;;;;;17.10;99.90;;;;;;5066883;28;19920;-76
2023/06/24 05:02:48;;;;;;;;;;;17.10;99.90;;;;;;5046317;28;19920;-75
2023/06/24 05:05:14;;;;;;;;;;;17.20;99.90;;;;;;5071703;28;20019;-76
2023/06/24 05:07:39;;;;;;;;;;;17.20;99.90;;;;;;5062387;28;20397;-76
2023/06/24 05:10:05;;;;;;;;;;;17.20;99.90;;;;;;5067723;28;19921;-76
2023/06/24 05:12:31;;;;;;;;;;;17.30;99.90;;;;;;5062561;28;19978;-74
2023/06/24 05:14:56;;;;;;;;;;;17.50;99.90;;;;;;5058514;28;20301;-75
2023/06/24 05:17:22;;;;;;;;;;;17.70;99.90;;;;;;5099054;28;19925;-76
2023/06/24 05:19:47;;;;;;;;;;;17.80;99.90;;;;;;5069112;28;20350;-75
2023/06/24 05:22:13;;;;;;;;;;;17.90;99.90;;;;;;5061077;28;20018;-76
2023/06/24 05:24:38;;;;;;;;;;;18.00;99.90;;;;;;5060742;28;19994;-74
2023/06/24 05:27:07;;;;;;;;;;;18.00;99.90;;;;;;5064529;28;19943;-74
2023/06/24 05:29:33;;;;;;;;;;;18.10;99.90;;;;;;5055842;28;19928;-76
2023/06/24 05:31:59;;;;;;;;;;;18.20;99.90;;;;;;5069883;28;20151;-76
2023/06/24 05:34:25;;;;;;;;;;;18.30;99.90;;;;;;5099970;28;20285;-76
2023/06/24 05:36:51;;;;;;;;;;;18.50;99.90;;;;;;5072424;28;19928;-75
2023/06/24 05:39:16;;;;;;;;;;;18.60;99.90;;;;;;5067735;28;20430;-75
2023/06/24 05:41:42;;;;;;;;;;;18.70;99.90;;;;;;5046211;28;20409;-76
2023/06/24 05:44:11;;;;;;;;;;;18.90;99.90;;;;;;5062567;28;19966;-76
2023/06/24 05:46:37;;;;;;;;;;;19.00;99.90;;;;;;5045768;28;19997;-76
2023/06/24 05:49:03;;;;;;;;;;;19.00;99.90;;;;;;5070882;28;19920;-75
2023/06/24 05:51:28;;;;;;;;;;;19.10;99.90;;;;;;5065001;28;20459;-75
2023/06/24 05:53:54;;;;;;;;;;;19.30;99.90;;;;;;5086580;28;19991;-76
2023/06/24 05:56:20;;;;;;;;;;;19.30;99.90;;;;;;5099172;28;19920;-76
2023/06/24 05:58:45;;;;;;;;;;;19.40;99.90;;;;;;5105922;27;19962;-75
2023/06/24 06:01:11;;;;;;;;;;;19.60;99.90;;;;;;5097669;27;19924;-75
2023/06/24 06:03:37;;;;;;;;;;;19.70;99.90;;;;;;5093299;28;20392;-76
2023/06/24 06:06:02;;;;;;;;;;;19.90;99.90;;;;;;5108268;28;19959;-76
2023/06/24 06:08:28;;;;;;;;;;;20.00;99.90;;;;;;5093682;27;20014;-76
2023/06/24 06:10:53;;;;;;;;;;;20.30;99.90;;;;;;5087748;28;19927;-76
2023/06/24 06:13:19;;;;;;;;;;;20.60;99.90;;;;;;5108289;28;19924;-75
2023/06/24 06:15:44;;;;;;;;;;;20.90;99.90;;;;;;5104893;27;19935;-76
2023/06/24 06:18:10;;;;;;;;;;;21.20;99.90;;;;;;5110603;27;19920;-77
2023/06/24 06:20:36;;;;;;;;;;;21.40;99.90;;;;;;5100378;27;19924;-75
2023/06/24 06:23:01;;;;;;;;;;;21.50;99.90;;;;;;5083516;28;20011;-75
2023/06/24 06:25:27;;;;;;;;;;;21.50;99.90;;;;;;5103135;27;20054;-75
2023/06/24 06:27:52;;;;;;;;;;;21.40;99.90;;;;;;5106197;28;19920;-75
2023/06/24 06:30:20;;;;;;;;;;;21.30;99.90;;;;;;5106046;28;19924;-75
2023/06/24 06:32:46;;;;;;;;;;;21.20;99.90;;;;;;5107284;28;20009;-76
2023/06/24 06:35:12;;;;;;;;;;;21.10;99.90;;;;;;5119228;27;20010;-75
2023/06/24 06:37:37;;;;;;;;;;;21.10;99.90;;;;;;5096689;28;20045;-76
2023/06/24 06:40:03;;;;;;;;;;;21.10;99.90;;;;;;5092771;27;19926;-76
2023/06/24 06:42:29;;;;;;;;;;;21.10;99.90;;;;;;5112783;27;19920;-76
2023/06/24 06:44:54;;;;;;;;;;;21.10;99.90;;;;;;5127643;27;20006;-76
2023/06/24 06:47:20;;;;;;;;;;;21.10;99.90;;;;;;5106621;28;20305;-75
2023/06/24 06:49:45;;;;;;;;;;;21.20;99.90;;;;;;5113049;28;20296;-76
2023/06/24 06:52:11;;;;;;;;;;;21.20;99.90;;;;;;5115134;27;19923;-76
2023/06/24 06:54:37;;;;;;;;;;;21.20;99.90;;;;;;5110776;27;19924;-76
2023/06/24 06:57:03;;;;;;;;;;;21.30;99.90;;;;;;5068020;28;20338;-76
2023/06/24 06:59:29;;;;;;;;;;;21.40;99.90;;;;;;5105674;28;19920;-75
2023/06/24 07:02:01;;;;;;;;;;;21.50;99.90;;;;;;5109870;27;20006;-75
2023/06/24 07:04:26;;;;;;;;;;;21.50;99.90;;;;;;5078231;28;19930;-75
2023/06/24 07:06:52;;;;;;;;;;;21.50;99.90;;;;;;5105298;27;19919;-76
2023/06/24 07:09:18;;;;;;;;;;;21.60;99.90;;;;;;5087732;28;19968;-76
2023/06/24 07:11:43;;;;;;;;;;;21.60;99.90;;;;;;5110626;28;20497;-76
2023/06/24 07:14:09;;;;;;;;;;;21.70;99.90;;;;;;5083566;28;19928;-76
2023/06/24 07:16:35;;;;;;;;;;;21.70;99.90;;;;;;5107730;27;19964;-77
2023/06/24 07:19:01;;;;;;;;;;;21.80;99.90;;;;;;5095308;28;19920;-76
2023/06/24 07:21:27;;;;;;;;;;;21.80;99.90;;;;;;5103082;27;19919;-74
2023/06/24 07:23:52;;;;;;;;;;;21.90;99.90;;;;;;5107411;28;19916;-74
2023/06/24 07:26:18;;;;;;;;;;;21.90;99.90;;;;;;5083812;28;19919;-76
2023/06/24 07:28:43;;;;;;;;;;;21.90;99.90;;;;;;5117291;28;19955;-77
2023/06/24 07:31:12;;;;;;;;;;;22.00;99.90;;;;;;5081966;28;20304;-76
2023/06/24 07:33:38;;;;;;;;;;;22.00;99.90;;;;;;5090726;28;19928;-76
2023/06/24 07:36:03;;;;;;;;;;;22.10;99.90;;;;;;5108918;27;19920;-77
2023/06/24 07:38:29;;;;;;;;;;;22.10;99.90;;;;;;5118874;28;19924;-76
2023/06/24 07:40:55;;;;;;;;;;;22.30;99.90;;;;;;5102017;28;19956;-76
2023/06/24 07:43:21;;;;;;;;;;;22.40;99.90;;;;;;5080325;28;20285;-76
2023/06/24 07:45:47;;;;;;;;;;;22.60;99.90;;;;;;5098236;28;19919;-76
2023/06/24 07:48:12;;;;;;;;;;;22.80;99.90;;;;;;5092256;28;19981;-76
2023/06/24 07:50:41;;;;;;;;;;;23.00;99.90;;;;;;5071725;28;20342;-76
2023/06/24 07:53:07;;;;;;;;;;;23.10;99.90;;;;;;5080960;28;20399;-77
2023/06/24 07:55:32;;;;;;;;;;;23.30;99.90;;;;;;5114658;28;20018;-77
2023/06/24 07:58:02;;;;;;;;;;;23.50;99.90;;;;;;5093333;28;19934;-76
2023/06/24 08:00:28;;;;;;;;;;;23.70;99.90;;;;;;5097521;27;20032;-76
2023/06/24 08:02:55;;;;;;;;;;;23.80;99.90;;;;;;5083949;28;20019;-77
2023/06/24 08:05:21;;;;;;;;;;;23.90;99.90;;;;;;5105815;28;20451;-76
2023/06/24 08:07:46;;;;;;;;;;;24.00;99.90;;;;;;5079468;28;19927;-77
2023/06/24 08:10:12;;;;;;;;;;;24.10;99.90;;;;;;5101680;28;19920;-76
2023/06/24 08:12:37;;;;;;;;;;;24.20;99.90;;;;;;5107674;28;21469;-77
2023/06/24 08:15:06;;;;;;;;;;;24.20;99.90;;;;;;5103969;28;19928;-76
2023/06/24 08:17:31;;;;;;;;;;;24.30;99.90;;;;;;5074960;28;19927;-76
2023/06/24 08:19:57;;;;;;;;;;;24.30;99.90;;;;;;5089962;28;19920;-77
2023/06/24 08:22:22;;;;;;;;;;;24.30;99.90;;;;;;5105839;28;19920;-77
2023/06/24 08:24:48;;;;;;;;;;;24.30;99.90;;;;;;5106427;28;19920;-76
2023/06/24 08:27:17;;;;;;;;;;;24.40;99.90;;;;;;5108147;28;19924;-78
2023/06/24 08:29:42;;;;;;;;;;;24.40;99.90;;;;;;5105641;28;19980;-79
2023/06/24 08:32:11;;;;;;;;;;;24.50;99.90;;;;;;5104438;28;19920;-76
2023/06/24 08:34:36;;;;;;;;;;;24.40;99.90;;;;;;5104503;28;19927;-78
2023/06/24 08:37:02;;;;;;;;;;;24.40;99.40;;;;;;5110330;28;20349;-76
2023/06/24 08:39:28;;;;;;;;;;;24.50;99.90;;;;;;5069482;28;19924;-77
2023/06/24 08:41:54;;;;;;;;;;;24.60;99.90;;;;;;5094318;28;19920;-77
2023/06/24 08:44:19;;;;;;;;;;;24.60;99.40;;;;;;5095485;28;19955;-77
2023/06/24 08:46:45;;;;;;;;;;;24.70;99.20;;;;;;5101195;28;20281;-79
2023/06/24 08:49:23;;;;;;;;;;;24.80;99.50;;;;;;5114206;28;19920;-76
2023/06/24 08:52:00;;;;;;;;;;;24.80;99.30;;;;;;5079777;28;19928;-77
2023/06/24 08:54:26;;;;;;;;;;;24.90;99.00;;;;;;5097232;28;19963;-76
2023/06/24 08:56:52;;;;;;;;;;;25.00;99.10;;;;;;5112767;28;19920;-76
2023/06/24 08:59:20;;;;;;;;;;;25.10;98.30;;;;;;5091945;28;20071;-76
2023/06/24 09:01:49;;;;;;;;;;;25.20;98.70;;;;;;5116825;28;19963;-77
2023/06/24 09:04:15;;;;;;;;;;;25.30;98.50;;;;;;5099489;28;19946;-78
2023/06/24 09:06:40;;;;;;;;;;;25.40;98.60;;;;;;5099123;28;19920;-76
2023/06/24 09:09:16;;;;;;;;;;;25.70;98.70;;;;;;5102273;28;19990;-77
2023/06/24 09:11:50;;;;;;;;;;;26.00;98.60;;;;;;5098014;28;19967;-76
2023/06/24 09:14:16;;;;;;;;;;;26.20;97.60;;;;;;5100745;28;19951;-77
2023/06/24 09:16:41;;;;;;;;;;;26.30;97.90;;;;;;5086188;28;20285;-78
2023/06/24 09:19:07;;;;;;;;;;;26.50;97.50;;;;;;5089916;28;19999;-77
2023/06/24 09:21:34;;;;;;;;;;;26.40;96.10;;;;;;5108447;28;19940;-74
2023/06/24 09:24:00;;;;;;;;;;;26.40;96.30;;;;;;5108445;28;19919;-78
2023/06/24 09:26:27;;;;;;;;;;;26.30;96.20;;;;;;5107207;27;20518;-76
2023/06/24 09:28:57;;;;;;;;;;;26.30;96.10;;;;;;5093576;28;19920;-78
2023/06/24 09:31:23;;;;;;;;;;;26.20;95.70;;;;;;5112036;28;20364;-79
2023/06/24 09:33:49;;;;;;;;;;;26.20;96.30;;;;;;5072504;28;19934;-76
2023/06/24 09:36:15;;;;;;;;;;;26.20;96.50;;;;;;5094036;28;19919;-77
2023/06/24 09:38:47;;;;;;;;;;;26.20;95.80;;;;;;5096098;28;19919;-77
2023/06/24 09:41:13;;;;;;;;;;;26.20;95.40;;;;;;5107921;28;20011;-76
2023/06/24 09:43:42;;;;;;;;;;;26.10;95.50;;;;;;5115700;28;19942;-76
2023/06/24 09:46:08;;;;;;;;;;;26.20;96.20;;;;;;5075537;28;19919;-76
2023/06/24 09:48:33;;;;;;;;;;;26.40;95.70;;;;;;5103026;28;19942;-77
2023/06/24 09:51:03;;;;;;;;;;;26.50;95.10;;;;;;5108295;28;20046;-78
2023/06/24 09:53:34;;;;;;;;;;;26.70;95.30;;;;;;5099564;28;19920;-77
2023/06/24 09:56:02;;;;;;;;;;;26.80;95.40;;;;;;5117306;27;19919;-77
2023/06/24 09:58:32;;;;;;;;;;;27.20;94.50;;;;;;5082849;28;19924;-77
2023/06/24 10:01:01;;;;;;;;;;;27.10;94.50;;;;;;5095732;28;19919;-77
2023/06/24 10:03:27;;;;;;;;;;;27.00;94.60;;;;;;5129408;27;19923;-78
2023/06/24 10:05:53;;;;;;;;;;;27.30;93.90;;;;;;5114671;28;20298;-76
2023/06/24 10:08:21;;;;;;;;;;;27.40;94.30;;;;;;5110378;28;19924;-78
2023/06/24 10:10:49;;;;;;;;;;;27.50;93.80;;;;;;5103349;27;19927;-76
2023/06/24 10:13:14;;;;;;;;;;;27.40;93.40;;;;;;5089830;28;19928;-77
2023/06/24 10:15:40;;;;;;;;;;;27.50;94.50;;;;;;5117971;27;20385;-76
2023/06/24 10:18:41;;;;;;;;;;;27.60;92.50;;;;;;5098805;28;19928;-76
2023/06/24 10:21:08;;;;;;;;;;;27.70;91.90;;;;;;5034019;28;19921;-78
2023/06/24 10:23:41;;;;;;;;;;;27.60;93.10;;;;;;5060588;28;19903;-76
2023/06/24 10:26:11;;;;;;;;;;;27.60;93.10;;;;;;5111894;28;19986;-77
2023/06/24 10:28:55;;;;;;;;;;;27.80;92.70;;;;;;5100612;28;20300;-77
2023/06/24 10:31:41;;;;;;;;;;;28.00;92.50;;;;;;5125577;27;19924;-76
2023/06/24 10:34:18;;;;;;;;;;;27.80;91.80;;;;;;5083908;28;19924;-78
2023/06/24 10:36:52;;;;;;;;;;;27.90;93.00;;;;;;5103735;28;19928;-78
2023/06/24 10:39:37;;;;;;;;;;;28.20;91.90;;;;;;5099893;28;19919;-76
2023/06/24 10:42:21;;;;;;;;;;;28.40;91.30;;;;;;5096969;28;20082;-77
2023/06/24 10:44:50;;;;;;;;;;;28.60;90.70;;;;;;5098305;28;20277;-78
2023/06/24 10:47:16;;;;;;;;;;;28.80;92.10;;;;;;5085993;28;19941;-79
2023/06/24 10:49:42;;;;;;;;;;;29.10;92.00;;;;;;5119317;27;20343;-77
2023/06/24 10:52:10;;;;;;;;;;;29.40;90.40;;;;;;5112008;28;19966;-78
2023/06/24 10:54:37;;;;;;;;;;;29.50;90.30;;;;;;5103503;28;19937;-77
2023/06/24 10:57:03;;;;;;;;;;;29.70;88.90;;;;;;5098766;28;19959;-79
2023/06/24 10:59:34;;;;;;;;;;;29.70;89.10;;;;;;5084939;28;20311;-79
2023/06/24 11:02:02;;;;;;;;;;;29.90;89.40;;;;;;5099038;28;20046;-78
2023/06/24 11:04:28;;;;;;;;;;;29.80;88.60;;;;;;5126537;27;19935;-78
2023/06/24 11:07:03;;;;;;;;;;;29.60;90.40;;;;;;5089596;28;19983;-77
2023/06/24 11:09:32;;;;;;;;;;;29.60;89.20;;;;;;5081387;28;19943;-79
2023/06/24 11:11:57;;;;;;;;;;;29.60;87.70;;;;;;5066673;28;20373;-78
2023/06/24 11:14:23;;;;;;;;;;;29.50;87.00;;;;;;5091700;28;19920;-77
2023/06/24 11:16:49;;;;;;;;;;;29.60;88.50;;;;;;5095046;28;20292;-77
2023/06/24 11:19:15;;;;;;;;;;;29.80;88.40;;;;;;5112443;28;20063;-76
2023/06/24 11:21:43;;;;;;;;;;;30.00;87.90;;;;;;5107156;28;19915;-77
2023/06/24 11:24:10;;;;;;;;;;;30.20;87.10;;;;;;5078642;28;19907;-79
2023/06/24 11:26:36;;;;;;;;;;;30.30;89.20;;;;;;5119360;27;19997;-77
2023/06/24 11:29:09;;;;;;;;;;;30.50;86.50;;;;;;5111272;27;19920;-77
2023/06/24 11:31:35;;;;;;;;;;;30.50;86.50;;;;;;5119225;27;19971;-76
2023/06/24 11:34:01;;;;;;;;;;;30.70;86.50;;;;;;5093154;28;20381;-77
2023/06/24 11:36:29;;;;;;;;;;;30.50;84.60;;;;;;5105278;28;20022;-78
2023/06/24 11:38:54;;;;;;;;;;;30.20;84.80;;;;;;5106460;28;19920;-78
2023/06/24 11:41:20;;;;;;;;;;;29.80;85.60;;;;;;5118216;28;19995;-77
2023/06/24 11:43:46;;;;;;;;;;;29.50;85.60;;;;;;5102221;28;19969;-76
2023/06/24 11:46:24;;;;;;;;;;;29.40;87.80;;;;;;5127470;27;19919;-78
2023/06/24 11:48:49;;;;;;;;;;;29.60;86.00;;;;;;5106175;28;19927;-78
2023/06/24 11:51:15;;;;;;;;;;;29.70;85.70;;;;;;5097934;27;19904;-77
2023/06/24 11:53:43;;;;;;;;;;;29.90;85.60;;;;;;5099919;27;19919;-76
2023/06/24 11:56:08;;;;;;;;;;;30.00;86.00;;;;;;5123796;27;19919;-78
2023/06/24 11:58:35;;;;;;;;;;;30.20;85.10;;;;;;5108703;28;19943;-79
2023/06/24 12:01:01;;;;;;;;;;;30.20;86.20;;;;;;5101998;28;19920;-76
2023/06/24 12:03:27;;;;;;;;;;;30.20;83.70;;;;;;5100210;28;19946;-76
2023/06/24 12:05:53;;;;;;;;;;;30.20;83.40;;;;;;5099775;28;20328;-78
2023/06/24 12:08:22;;;;;;;;;;;30.30;85.50;;;;;;5110230;28;19920;-77
2023/06/24 12:10:48;;;;;;;;;;;30.40;84.00;;;;;;5078478;28;19927;-78
2023/06/24 12:13:14;;;;;;;;;;;30.70;83.50;;;;;;5089074;28;19963;-78
2023/06/24 12:15:39;;;;;;;;;;;30.70;81.10;;;;;;5075691;28;19919;-77
2023/06/24 12:18:05;;;;;;;;;;;30.80;82.00;;;;;;5107642;28;19924;-77
2023/06/24 12:20:32;;;;;;;;;;;30.70;81.40;;;;;;5118214;28;19931;-78
2023/06/24 12:22:58;;;;;;;;;;;30.80;79.90;;;;;;5105127;28;20347;-77
2023/06/24 12:25:24;;;;;;;;;;;30.80;80.90;;;;;;5074397;28;19920;-77
2023/06/24 12:27:50;;;;;;;;;;;30.80;79.70;;;;;;5080667;28;19920;-77
2023/06/24 12:30:16;;;;;;;;;;;30.80;81.20;;;;;;5112607;28;19920;-77
2023/06/24 12:32:42;;;;;;;;;;;30.70;81.30;;;;;;5111465;28;19920;-78
2023/06/24 12:35:09;;;;;;;;;;;30.50;80.70;;;;;;5108784;28;19919;-78
2023/06/24 12:37:35;;;;;;;;;;;30.40;81.40;;;;;;5081844;28;19932;-77
2023/06/24 12:40:01;;;;;;;;;;;30.40;80.10;;;;;;5119063;28;20011;-77
2023/06/24 12:42:26;;;;;;;;;;;30.10;80.70;;;;;;5081913;28;19923;-77
2023/06/24 12:44:52;;;;;;;;;;;30.00;80.30;;;;;;5109302;28;20371;-77
2023/06/24 12:47:18;;;;;;;;;;;29.60;81.10;;;;;;5089701;28;20057;-77
2023/06/24 12:49:44;;;;;;;;;;;29.50;82.80;;;;;;5099467;28;19993;-79
2023/06/24 12:52:13;;;;;;;;;;;29.70;82.50;;;;;;5072367;28;19924;-77
2023/06/24 12:54:39;;;;;;;;;;;30.00;80.00;;;;;;5101686;28;20450;-77
2023/06/24 12:57:05;;;;;;;;;;;29.80;80.20;;;;;;5090154;28;19903;-77
2023/06/24 12:59:31;;;;;;;;;;;29.70;81.10;;;;;;5108245;28;19959;-77
2023/06/24 13:01:56;;;;;;;;;;;29.40;81.30;;;;;;5084910;28;19928;-77
2023/06/24 13:04:23;;;;;;;;;;;29.20;82.00;;;;;;5099353;28;19919;-75
2023/06/24 13:06:51;;;;;;;;;;;29.00;83.80;;;;;;5092882;28;19920;-76
2023/06/24 13:09:16;;;;;;;;;;;29.20;84.30;;;;;;5073570;27;19982;-76
2023/06/24 13:11:42;;;;;;;;;;;29.60;83.00;;;;;;5114073;27;19920;-77
2023/06/24 13:14:09;;;;;;;;;;;29.90;81.60;;;;;;5112495;27;19920;-76
2023/06/24 13:16:35;;;;;;;;;;;30.10;82.20;;;;;;5083144;28;19965;-73
2023/06/24 13:19:01;;;;;;;;;;;30.30;81.90;;;;;;5111918;28;19908;-76
2023/06/24 13:21:27;;;;;;;;;;;30.50;80.90;;;;;;5110535;28;20415;-75
2023/06/24 13:23:52;;;;;;;;;;;30.60;80.40;;;;;;5118815;28;20354;-76
2023/06/24 13:26:18;;;;;;;;;;;30.50;81.40;;;;;;5116899;28;19920;-75
2023/06/24 13:28:43;;;;;;;;;;;30.50;82.00;;;;;;5114758;28;19925;-78
2023/06/24 13:31:09;;;;;;;;;;;30.40;81.80;;;;;;5085575;28;19938;-76
2023/06/24 13:33:35;;;;;;;;;;;30.40;81.70;;;;;;5088275;28;20373;-77
2023/06/24 13:36:02;;;;;;;;;;;30.50;80.90;;;;;;5094856;28;20066;-75
2023/06/24 13:38:28;;;;;;;;;;;30.50;81.60;;;;;;5099046;28;19927;-76
2023/06/24 13:40:53;;;;;;;;;;;30.40;81.90;;;;;;5093773;28;19927;-75
2023/06/24 13:43:19;;;;;;;;;;;30.30;81.40;;;;;;5088947;28;19994;-77
2023/06/24 13:45:44;;;;;;;;;;;30.10;81.50;;;;;;5099837;28;19924;-77
2023/06/24 13:48:10;;;;;;;;;;;29.80;80.50;;;;;;5106302;28;20398;-78
2023/06/24 13:50:35;;;;;;;;;;;29.50;81.90;;;;;;5093082;28;19987;-77
2023/06/24 13:53:01;;;;;;;;;;;29.20;83.00;;;;;;5088749;28;19920;-76
2023/06/24 13:55:27;;;;;;;;;;;29.00;84.30;;;;;;5068197;28;20047;-77
2023/06/24 13:57:53;;;;;;;;;;;28.90;83.80;;;;;;5109706;28;19919;-76
2023/06/24 14:00:18;;;;;;;;;;;29.00;84.70;;;;;;5098667;28;19924;-76
2023/06/24 14:02:44;;;;;;;;;;;29.30;83.70;;;;;;5113463;28;19923;-76
2023/06/24 14:05:09;;;;;;;;;;;29.30;82.70;;;;;;5111496;27;20014;-76
2023/06/24 14:07:35;;;;;;;;;;;29.00;82.90;;;;;;5096530;28;20011;-76
2023/06/24 14:10:01;;;;;;;;;;;28.70;84.40;;;;;;5101918;28;19926;-77
2023/06/24 14:12:26;;;;;;;;;;;28.60;84.20;;;;;;5099050;28;19930;-77
2023/06/24 14:14:52;;;;;;;;;;;28.70;88.50;;;;;;5116508;28;19919;-77